Time;durP1;ratioP1;P1;durP2;ratioP2;P2;SDS_P1;SDS_P2;PMS_P1;PMS_P2;Temp;Humidity;BMP_temperature;BMP_pressure;BME280_temperature;BME280_humidity;BME280_pressure;Samples;Min_cycle;Max_cycle;Signal;HPM_P1;HPM_P2
2023/12/18 00:00:19;;;;;;;1999.90;999.90;;;8.20;99.90;;;;;;5078957;28;20036;-82
2023/12/18 00:02:45;;;;;;;1999.90;999.90;;;8.20;99.90;;;;;;5087964;28;20411;-82
2023/12/18 00:05:11;;;;;;;1999.90;999.90;;;8.20;99.90;;;;;;5107235;28;20044;-82
2023/12/18 00:07:36;;;;;;;1999.90;999.90;;;8.30;99.90;;;;;;5088482;28;20044;-83
2023/12/18 00:10:02;;;;;;;1999.90;999.90;;;8.30;99.90;;;;;;5086985;28;20035;-82
2023/12/18 00:12:28;;;;;;;1999.90;999.90;;;8.20;99.90;;;;;;5087471;28;20071;-82
2023/12/18 00:14:53;;;;;;;1999.90;999.90;;;8.20;99.90;;;;;;5086375;28;20400;-81
2023/12/18 00:17:19;;;;;;;1999.90;999.90;;;8.30;99.90;;;;;;5063158;28;20040;-81
2023/12/18 00:19:44;;;;;;;1999.90;999.90;;;8.20;99.90;;;;;;5080766;28;20515;-81
2023/12/18 00:22:10;;;;;;;1999.90;999.90;;;8.30;99.90;;;;;;5071419;28;20338;-81
2023/12/18 00:24:36;;;;;;;1999.90;999.90;;;8.30;99.90;;;;;;5062902;28;20048;-81
2023/12/18 00:27:01;;;;;;;1999.90;999.90;;;8.30;99.90;;;;;;5060613;28;20070;-82
2023/12/18 00:29:27;;;;;;;1999.90;999.90;;;8.30;99.90;;;;;;5065865;28;20039;-81
2023/12/18 00:31:53;;;;;;;1999.90;999.90;;;8.30;99.90;;;;;;5066744;28;20541;-83
2023/12/18 00:34:18;;;;;;;1999.90;999.90;;;8.30;99.90;;;;;;5080808;28;20079;-81
2023/12/18 00:36:44;;;;;;;1999.90;999.90;;;8.30;99.90;;;;;;5064916;28;20115;-82
2023/12/18 00:39:11;;;;;;;1999.90;999.90;;;8.30;99.90;;;;;;5066857;28;20035;-81
2023/12/18 00:41:36;;;;;;;1999.90;999.90;;;8.30;99.90;;;;;;5088154;28;20051;-82
2023/12/18 00:44:02;;;;;;;1999.90;999.90;;;8.30;99.90;;;;;;5070206;28;20063;-82
2023/12/18 00:46:27;;;;;;;1999.90;999.90;;;8.30;99.90;;;;;;5104689;28;20479;-81
2023/12/18 00:48:53;;;;;;;1999.90;999.90;;;8.30;99.90;;;;;;5072414;28;20059;-81
2023/12/18 00:51:19;;;;;;;1999.90;999.90;;;8.40;99.90;;;;;;5081707;28;20051;-81
2023/12/18 00:53:44;;;;;;;1999.90;999.90;;;8.40;99.90;;;;;;5065327;28;20042;-82
2023/12/18 00:56:10;;;;;;;1999.90;999.90;;;8.40;99.90;;;;;;5065886;28;20589;-81
2023/12/18 00:58:36;;;;;;;1999.90;999.90;;;8.40;99.90;;;;;;5073281;28;20031;-81
2023/12/18 01:01:01;;;;;;;1999.90;999.90;;;8.40;99.90;;;;;;5098785;28;20132;-82
2023/12/18 01:03:28;;;;;;;1999.90;999.90;;;8.40;99.90;;;;;;5065999;28;20059;-82
2023/12/18 01:05:54;;;;;;;1999.90;999.90;;;8.40;99.90;;;;;;5080767;28;20044;-82
2023/12/18 01:08:19;;;;;;;1999.90;999.90;;;8.40;99.90;;;;;;5084326;28;20039;-81
2023/12/18 01:10:45;;;;;;;1999.90;999.90;;;8.50;99.90;;;;;;5084796;28;20519;-81
2023/12/18 01:13:11;;;;;;;1999.90;999.90;;;8.50;99.90;;;;;;5101245;28;20055;-81
2023/12/18 01:15:37;;;;;;;1999.90;999.90;;;8.50;99.90;;;;;;5103413;28;20051;-81
2023/12/18 01:18:02;;;;;;;1999.90;999.90;;;8.40;99.90;;;;;;5087095;28;20112;-81
2023/12/18 01:20:28;;;;;;;1999.90;999.90;;;8.50;99.90;;;;;;5072203;28;20043;-81
2023/12/18 01:22:54;;;;;;;1999.90;999.90;;;8.40;99.90;;;;;;5069163;28;20036;-81
2023/12/18 01:25:19;;;;;;;1999.90;999.90;;;8.50;99.90;;;;;;5095023;28;20036;-81
2023/12/18 01:27:45;;;;;;;1999.90;999.90;;;8.50;99.90;;;;;;5073148;28;20488;-81
2023/12/18 01:30:11;;;;;;;1999.90;999.90;;;8.50;99.90;;;;;;5083097;28;20353;-81
2023/12/18 01:32:36;;;;;;;1999.90;999.90;;;8.50;99.90;;;;;;5066368;28;20480;-81
2023/12/18 01:35:02;;;;;;;1999.90;999.90;;;8.50;99.90;;;;;;5074925;28;20036;-82
2023/12/18 01:37:28;;;;;;;1999.90;999.90;;;8.50;99.90;;;;;;5063867;28;20036;-81
2023/12/18 01:39:54;;;;;;;1999.90;999.90;;;8.50;99.90;;;;;;5063860;28;20078;-81
2023/12/18 01:42:19;;;;;;;1999.90;999.90;;;8.50;99.90;;;;;;5065573;28;20431;-81
2023/12/18 01:44:45;;;;;;;1999.90;999.90;;;8.50;99.90;;;;;;5102095;28;20067;-81
2023/12/18 01:47:11;;;;;;;1999.90;999.90;;;8.50;99.90;;;;;;5080869;28;20097;-82
2023/12/18 01:49:37;;;;;;;1999.90;999.90;;;8.50;99.90;;;;;;5079846;28;20074;-81
2023/12/18 01:52:04;;;;;;;1999.90;999.90;;;8.50;99.90;;;;;;5102461;28;20076;-82
2023/12/18 01:54:30;;;;;;;1999.90;999.90;;;8.40;99.90;;;;;;5087325;28;20047;-82
2023/12/18 01:56:57;;;;;;;1999.90;999.90;;;8.40;99.90;;;;;;5069560;28;20399;-81
2023/12/18 01:59:24;;;;;;;1999.90;999.90;;;8.50;99.90;;;;;;5083274;28;20051;-81
2023/12/18 02:01:51;;;;;;;1999.90;999.90;;;8.50;99.90;;;;;;5064594;28;20437;-81
2023/12/18 02:04:17;;;;;;;1999.90;999.90;;;8.50;99.90;;;;;;5081404;28;20113;-82
2023/12/18 02:06:44;;;;;;;1999.90;999.90;;;8.50;99.90;;;;;;5062801;28;20036;-82
2023/12/18 02:09:11;;;;;;;1999.90;999.90;;;8.50;99.90;;;;;;5099404;28;20075;-81
2023/12/18 02:11:37;;;;;;;1999.90;999.90;;;8.50;99.90;;;;;;5103412;28;20040;-82
2023/12/18 02:14:04;;;;;;;1999.90;999.90;;;8.50;99.90;;;;;;5066265;28;20142;-82
2023/12/18 02:16:29;;;;;;;1999.90;999.90;;;8.60;99.90;;;;;;5070612;28;20050;-81
2023/12/18 02:18:55;;;;;;;1999.90;999.90;;;8.50;99.90;;;;;;5071582;28;20039;-81
2023/12/18 02:21:21;;;;;;;1999.90;999.90;;;8.60;99.90;;;;;;5077357;28;20059;-81
2023/12/18 02:23:48;;;;;;;1999.90;999.90;;;8.50;99.90;;;;;;5061307;28;20117;-81
2023/12/18 02:26:15;;;;;;;1999.90;999.90;;;8.50;99.90;;;;;;5060832;28;20047;-82
2023/12/18 02:28:43;;;;;;;1999.90;999.90;;;8.60;99.90;;;;;;5078589;28;20040;-81
2023/12/18 02:31:12;;;;;;;1999.90;999.90;;;8.60;99.90;;;;;;5084945;28;20145;-81
2023/12/18 02:33:37;;;;;;;1999.90;999.90;;;8.60;99.90;;;;;;5058817;28;20052;-81
2023/12/18 02:36:03;;;;;;;1999.90;999.90;;;8.60;99.90;;;;;;5063558;28;20059;-82
2023/12/18 02:38:29;;;;;;;1999.90;999.90;;;8.70;99.90;;;;;;5066549;28;20112;-81
2023/12/18 02:40:54;;;;;;;1999.90;999.90;;;8.70;99.90;;;;;;5064337;28;20237;-81
2023/12/18 02:43:20;;;;;;;1999.90;999.90;;;8.70;99.90;;;;;;5077742;28;20062;-82
2023/12/18 02:45:45;;;;;;;1999.90;999.90;;;8.80;99.90;;;;;;5062770;28;20059;-81
2023/12/18 02:48:11;;;;;;;1999.90;999.90;;;8.80;99.90;;;;;;5079420;28;20052;-81
2023/12/18 02:50:37;;;;;;;1999.90;999.90;;;8.80;99.90;;;;;;5076028;28;20040;-82
2023/12/18 02:53:03;;;;;;;1999.90;999.90;;;8.80;99.90;;;;;;5063437;28;20158;-81
2023/12/18 02:55:28;;;;;;;1999.90;999.90;;;8.90;99.90;;;;;;5080451;28;20051;-81
2023/12/18 02:57:54;;;;;;;1999.90;999.90;;;8.90;99.90;;;;;;5082517;28;20050;-82
2023/12/18 03:00:19;;;;;;;1999.90;999.90;;;8.80;99.90;;;;;;5088623;28;20046;-81
2023/12/18 03:02:45;;;;;;;1999.90;999.90;;;8.80;99.90;;;;;;5068619;28;20031;-81
2023/12/18 03:05:11;;;;;;;1999.90;999.90;;;8.80;99.90;;;;;;5080198;28;20040;-82
2023/12/18 03:07:36;;;;;;;1999.90;999.90;;;8.80;99.90;;;;;;5065659;28;20491;-81
2023/12/18 03:10:03;;;;;;;1999.90;999.90;;;8.80;99.90;;;;;;5082835;28;20172;-81
2023/12/18 03:12:28;;;;;;;1999.90;999.90;;;8.80;99.90;;;;;;5082539;28;20052;-81
2023/12/18 03:14:54;;;;;;;1999.90;999.90;;;8.70;99.90;;;;;;5062776;28;20492;-81
2023/12/18 03:17:20;;;;;;;1999.90;999.90;;;8.70;99.90;;;;;;5067134;28;20480;-82
2023/12/18 03:19:45;;;;;;;1999.90;999.90;;;8.70;99.90;;;;;;5065195;28;20128;-82
2023/12/18 03:22:13;;;;;;;1999.90;999.90;;;8.70;99.90;;;;;;5067242;28;20044;-82
2023/12/18 03:24:39;;;;;;;1999.90;999.90;;;8.60;99.90;;;;;;5063465;28;20036;-81
2023/12/18 03:27:05;;;;;;;1999.90;999.90;;;8.60;99.90;;;;;;5067124;28;20036;-81
2023/12/18 03:29:31;;;;;;;1999.90;999.90;;;8.60;99.90;;;;;;5106618;28;20051;-81
2023/12/18 03:31:56;;;;;;;1999.90;999.90;;;8.60;99.90;;;;;;5067309;28;20051;-81
2023/12/18 03:34:22;;;;;;;1999.90;999.90;;;8.60;99.90;;;;;;5063433;28;20048;-81
2023/12/18 03:36:48;;;;;;;1999.90;999.90;;;8.60;99.90;;;;;;5064429;28;20046;-81
2023/12/18 03:39:13;;;;;;;1999.90;999.90;;;8.60;99.90;;;;;;5071903;28;20035;-81
2023/12/18 03:41:39;;;;;;;1999.90;999.90;;;8.60;99.90;;;;;;5063611;28;20035;-81
2023/12/18 03:44:04;;;;;;;1999.90;999.90;;;8.60;99.90;;;;;;5089376;28;20031;-81
2023/12/18 03:46:30;;;;;;;1999.90;999.90;;;8.60;99.90;;;;;;5083435;28;20458;-82
2023/12/18 03:48:55;;;;;;;1999.90;999.90;;;8.60;99.90;;;;;;5083300;28;20047;-81
2023/12/18 03:51:21;;;;;;;1999.90;999.90;;;8.60;99.90;;;;;;5082453;28;20028;-81
2023/12/18 03:53:47;;;;;;;1999.90;999.90;;;8.60;99.90;;;;;;5068959;28;20043;-81
2023/12/18 03:56:13;;;;;;;1999.90;999.90;;;8.60;99.90;;;;;;5088617;28;20043;-81
2023/12/18 03:58:38;;;;;;;1999.90;999.90;;;8.60;99.90;;;;;;5069317;28;20476;-81
2023/12/18 04:01:04;;;;;;;1999.90;999.90;;;8.60;99.90;;;;;;5072123;28;20126;-82
2023/12/18 04:03:29;;;;;;;1999.90;999.90;;;8.60;99.90;;;;;;5072114;28;20031;-81
2023/12/18 04:05:55;;;;;;;1999.90;999.90;;;8.60;99.90;;;;;;5107269;28;20031;-81
2023/12/18 04:08:21;;;;;;;1999.90;999.90;;;8.60;99.90;;;;;;5070948;28;20044;-82
2023/12/18 04:10:46;;;;;;;1999.90;999.90;;;8.60;99.90;;;;;;5100885;28;20040;-81
2023/12/18 04:13:12;;;;;;;1999.90;999.90;;;8.60;99.90;;;;;;5081981;28;20067;-82
2023/12/18 04:15:38;;;;;;;1999.90;999.90;;;8.60;99.90;;;;;;5081342;28;20039;-82
2023/12/18 04:18:04;;;;;;;1999.90;999.90;;;8.60;99.90;;;;;;5084313;28;20028;-81
2023/12/18 04:20:30;;;;;;;1999.90;999.90;;;8.60;99.90;;;;;;5080006;28;20112;-82
2023/12/18 04:22:56;;;;;;;1999.90;999.90;;;8.60;99.90;;;;;;5079622;28;20119;-82
2023/12/18 04:25:22;;;;;;;1999.90;999.90;;;8.60;99.90;;;;;;5082443;28;20040;-81
2023/12/18 04:27:48;;;;;;;1999.90;999.90;;;8.60;99.90;;;;;;5064717;28;20548;-81
2023/12/18 04:30:13;;;;;;;1999.90;999.90;;;8.70;99.90;;;;;;5107078;28;20079;-82
2023/12/18 04:32:39;;;;;;;1999.90;999.90;;;8.70;99.90;;;;;;5082690;28;20043;-81
2023/12/18 04:35:05;;;;;;;1999.90;999.90;;;8.70;99.90;;;;;;5086791;28;20059;-81
2023/12/18 04:37:30;;;;;;;1999.90;999.90;;;8.70;99.90;;;;;;5081227;28;20036;-81
2023/12/18 04:39:56;;;;;;;1999.90;999.90;;;8.70;99.90;;;;;;5067631;28;20110;-81
2023/12/18 04:42:22;;;;;;;1999.90;999.90;;;8.70;99.90;;;;;;5065445;28;20118;-81
2023/12/18 04:44:49;;;;;;;1999.90;999.90;;;8.70;99.90;;;;;;5069391;28;20408;-81
2023/12/18 04:47:14;;;;;;;1999.90;999.90;;;8.70;99.90;;;;;;5084496;28;20059;-80
2023/12/18 04:49:40;;;;;;;1999.90;999.90;;;8.70;99.90;;;;;;5100715;28;20047;-81
2023/12/18 04:52:06;;;;;;;1999.90;999.90;;;8.70;99.90;;;;;;5065501;28;20040;-82
2023/12/18 04:54:31;;;;;;;1999.90;999.90;;;8.80;99.90;;;;;;5079906;28;20039;-82
2023/12/18 04:56:57;;;;;;;1999.90;999.90;;;8.80;99.90;;;;;;5091078;28;20562;-82
2023/12/18 04:59:23;;;;;;;1999.90;999.90;;;8.80;99.90;;;;;;5087305;28;20042;-82
2023/12/18 05:01:49;;;;;;;1999.90;999.90;;;8.80;99.90;;;;;;5083588;28;20036;-82
2023/12/18 05:04:17;;;;;;;1999.90;999.90;;;8.80;99.90;;;;;;5101472;28;20408;-83
2023/12/18 05:06:49;;;;;;;1999.90;999.90;;;8.80;99.90;;;;;;5090307;28;20036;-82
2023/12/18 05:09:23;;;;;;;1999.90;999.90;;;8.90;99.90;;;;;;5082058;28;20168;-83
2023/12/18 05:11:49;;;;;;;1999.90;999.90;;;8.80;99.90;;;;;;5066983;28;20122;-83
2023/12/18 05:14:15;;;;;;;1999.90;999.90;;;8.80;99.90;;;;;;5086578;28;20038;-83
2023/12/18 05:16:41;;;;;;;1999.90;999.90;;;8.80;99.90;;;;;;5072176;28;20079;-85
2023/12/18 05:19:06;;;;;;;1999.90;999.90;;;8.80;99.90;;;;;;5069368;28;20043;-83
2023/12/18 05:21:32;;;;;;;1999.90;999.90;;;8.90;99.90;;;;;;5066746;28;20211;-84
2023/12/18 05:23:58;;;;;;;1999.90;999.90;;;8.90;99.90;;;;;;5099492;28;20027;-83
2023/12/18 05:26:23;;;;;;;1999.90;999.90;;;8.80;99.90;;;;;;5073833;28;20088;-82
2023/12/18 05:28:49;;;;;;;1999.90;999.90;;;8.80;99.90;;;;;;5070386;28;20032;-83
2023/12/18 05:31:16;;;;;;;1999.90;999.90;;;8.80;99.90;;;;;;5080804;28;20032;-83
2023/12/18 05:33:42;;;;;;;1999.90;999.90;;;8.90;99.90;;;;;;5068609;28;20142;-84
2023/12/18 05:36:08;;;;;;;1999.90;999.90;;;8.90;99.90;;;;;;5083067;28;20169;-82
2023/12/18 05:38:33;;;;;;;1999.90;999.90;;;8.90;99.90;;;;;;5084517;28;20472;-82
2023/12/18 05:40:59;;;;;;;1999.90;999.90;;;8.90;99.90;;;;;;5061022;28;20036;-82
2023/12/18 05:43:25;;;;;;;1999.90;999.90;;;8.90;99.90;;;;;;5053514;28;20036;-83
2023/12/18 05:45:50;;;;;;;1999.90;999.90;;;8.90;99.90;;;;;;5065918;28;20039;-83
2023/12/18 05:48:16;;;;;;;1999.90;999.90;;;9.00;99.90;;;;;;5055612;28;20504;-83
2023/12/18 05:50:42;;;;;;;1999.90;999.90;;;8.90;99.90;;;;;;5073427;28;20036;-83
2023/12/18 05:53:07;;;;;;;1999.90;999.90;;;8.90;99.90;;;;;;5078375;28;20509;-82
2023/12/18 05:55:33;;;;;;;1999.90;999.90;;;8.90;99.90;;;;;;5071851;28;20036;-85
2023/12/18 05:57:59;;;;;;;1999.90;999.90;;;8.90;99.90;;;;;;5075078;28;20389;-83
2023/12/18 06:00:24;;;;;;;1999.90;999.90;;;8.90;99.90;;;;;;5074848;28;20036;-83
2023/12/18 06:02:50;;;;;;;1999.90;999.90;;;8.90;99.90;;;;;;5058141;28;20243;-83
2023/12/18 06:05:15;;;;;;;1999.90;999.90;;;8.90;99.90;;;;;;5060603;28;20063;-83
2023/12/18 06:07:42;;;;;;;1999.90;999.90;;;8.90;99.90;;;;;;5081075;28;20050;-84
2023/12/18 06:10:10;;;;;;;1999.90;999.90;;;8.90;99.90;;;;;;5084512;28;20059;-82
2023/12/18 06:12:36;;;;;;;1999.90;999.90;;;8.90;99.90;;;;;;5063188;28;20044;-83
2023/12/18 06:15:03;;;;;;;1999.90;999.90;;;8.90;99.90;;;;;;5066702;28;20419;-85
2023/12/18 06:17:28;;;;;;;1999.90;999.90;;;8.90;99.90;;;;;;5075956;28;20043;-83
2023/12/18 06:19:54;;;;;;;1999.90;999.90;;;8.90;99.90;;;;;;5075048;28;20036;-83
2023/12/18 06:22:20;;;;;;;1999.90;999.90;;;8.90;99.90;;;;;;5061683;28;20391;-81
2023/12/18 06:24:46;;;;;;;1999.90;999.90;;;8.90;99.90;;;;;;5082311;28;20051;-81
2023/12/18 06:27:11;;;;;;;1999.90;999.90;;;8.90;99.90;;;;;;5081413;28;20086;-81
2023/12/18 06:29:37;;;;;;;1999.90;999.90;;;8.90;99.90;;;;;;5080038;28;20040;-81
2023/12/18 06:32:03;;;;;;;1999.90;999.90;;;8.90;99.90;;;;;;5078508;28;20480;-83
2023/12/18 06:34:28;;;;;;;1999.90;999.90;;;8.90;99.90;;;;;;5064026;28;20488;-83
2023/12/18 06:36:54;;;;;;;1999.90;999.90;;;9.00;99.90;;;;;;5083452;28;20135;-83
2023/12/18 06:39:20;;;;;;;1999.90;999.90;;;8.90;99.90;;;;;;5080636;28;20815;-83
2023/12/18 06:41:45;;;;;;;1999.90;999.90;;;8.90;99.90;;;;;;5077303;28;20047;-83
2023/12/18 06:44:11;;;;;;;1999.90;999.90;;;8.90;99.90;;;;;;5057685;28;20078;-83
2023/12/18 06:46:36;;;;;;;1999.90;999.90;;;8.90;99.90;;;;;;5079844;28;20075;-83
2023/12/18 06:49:02;;;;;;;1999.90;999.90;;;8.90;99.90;;;;;;5066144;28;20099;-83
2023/12/18 06:51:28;;;;;;;1999.90;999.90;;;8.90;99.90;;;;;;5067916;28;20557;-83
2023/12/18 06:53:54;;;;;;;1999.90;999.90;;;8.90;99.90;;;;;;5062411;28;20032;-83
2023/12/18 06:56:19;;;;;;;1999.90;999.90;;;8.90;99.90;;;;;;5082163;28;20146;-83
2023/12/18 06:58:45;;;;;;;1999.90;999.90;;;8.90;99.90;;;;;;5079976;28;20039;-83
2023/12/18 07:01:13;;;;;;;1999.90;999.90;;;8.90;99.90;;;;;;5077302;28;20032;-83
2023/12/18 07:03:39;;;;;;;1999.90;999.90;;;8.90;99.90;;;;;;5065933;28;20040;-84
2023/12/18 07:06:06;;;;;;;1999.90;999.90;;;8.90;99.90;;;;;;5084756;28;20043;-83
2023/12/18 07:08:31;;;;;;;1999.90;999.90;;;8.80;99.90;;;;;;5081417;28;20100;-83
2023/12/18 07:10:57;;;;;;;1999.90;999.90;;;8.90;99.90;;;;;;5068607;28;20126;-82
2023/12/18 07:13:23;;;;;;;1999.90;999.90;;;8.90;99.90;;;;;;5079103;28;20039;-81
2023/12/18 07:15:49;;;;;;;1999.90;999.90;;;8.90;99.90;;;;;;5066725;28;20484;-81
2023/12/18 07:18:14;;;;;;;1999.90;999.90;;;8.90;99.90;;;;;;5081623;28;20036;-82
2023/12/18 07:20:42;;;;;;;1999.90;999.90;;;8.90;99.90;;;;;;5080796;28;20047;-84
2023/12/18 07:23:09;;;;;;;1999.90;999.90;;;8.90;99.90;;;;;;5060470;28;20058;-83
2023/12/18 07:25:35;;;;;;;1999.90;999.90;;;8.90;99.90;;;;;;5078275;28;20182;-83
2023/12/18 07:28:00;;;;;;;1999.90;999.90;;;8.90;99.90;;;;;;5063718;28;20127;-83
2023/12/18 07:30:29;;;;;;;1999.90;999.90;;;8.90;99.90;;;;;;5064037;28;20071;-83
2023/12/18 07:32:54;;;;;;;1999.90;999.90;;;8.80;99.90;;;;;;5068560;28;20075;-83
2023/12/18 07:35:20;;;;;;;1999.90;999.90;;;8.80;99.90;;;;;;5066215;28;20155;-83
2023/12/18 07:37:46;;;;;;;1999.90;999.90;;;8.80;99.90;;;;;;5064337;28;20050;-83
2023/12/18 07:40:18;;;;;;;1999.90;999.90;;;8.80;99.90;;;;;;5077212;28;20504;-84
2023/12/18 07:42:47;;;;;;;1999.90;999.90;;;8.80;99.90;;;;;;5060786;28;20047;-83
2023/12/18 07:45:15;;;;;;;1999.90;999.90;;;8.90;99.90;;;;;;5082140;28;20452;-84
2023/12/18 07:47:41;;;;;;;1999.90;999.90;;;8.90;99.90;;;;;;5057365;28;20091;-83
2023/12/18 07:50:08;;;;;;;1999.90;999.90;;;8.90;99.90;;;;;;5076324;28;20075;-83
2023/12/18 07:52:34;;;;;;;1999.90;999.90;;;8.90;99.90;;;;;;5081293;28;20040;-83
2023/12/18 07:55:00;;;;;;;1999.90;999.90;;;8.90;99.90;;;;;;5081754;28;20042;-82
2023/12/18 07:57:25;;;;;;;1999.90;999.90;;;8.90;99.90;;;;;;5085635;28;20479;-83
2023/12/18 07:59:51;;;;;;;1999.90;999.90;;;8.90;99.90;;;;;;5079231;28;20032;-83
2023/12/18 08:02:17;;;;;;;1999.90;999.90;;;8.90;99.90;;;;;;5062757;28;20040;-83
2023/12/18 08:04:42;;;;;;;1999.90;999.90;;;8.90;99.90;;;;;;5083231;28;20040;-83
2023/12/18 08:07:08;;;;;;;1999.90;999.90;;;8.90;99.90;;;;;;5057809;28;20488;-83
2023/12/18 08:09:34;;;;;;;1999.90;999.90;;;8.90;99.90;;;;;;5084188;28;20467;-82
2023/12/18 08:12:00;;;;;;;1999.90;999.90;;;8.90;99.90;;;;;;5071948;28;20431;-83
2023/12/18 08:14:26;;;;;;;1999.90;999.90;;;8.90;99.90;;;;;;5061798;28;20488;-83
2023/12/18 08:16:51;;;;;;;1999.90;999.90;;;8.90;99.90;;;;;;5102664;28;20437;-83
2023/12/18 08:19:17;;;;;;;1999.90;999.90;;;8.90;99.90;;;;;;5084746;28;20121;-83
2023/12/18 08:21:44;;;;;;;1999.90;999.90;;;9.00;99.90;;;;;;5083901;28;20510;-83
2023/12/18 08:24:10;;;;;;;1999.90;999.90;;;9.00;99.90;;;;;;5085771;28;20039;-82
2023/12/18 08:26:35;;;;;;;1999.90;999.90;;;9.00;99.90;;;;;;5104339;28;20031;-82
2023/12/18 08:29:10;;;;;;;1999.90;999.90;;;9.00;99.90;;;;;;5089037;28;20035;-82
2023/12/18 08:31:37;;;;;;;1999.90;999.90;;;9.00;99.90;;;;;;5074277;28;20080;-83
2023/12/18 08:34:03;;;;;;;1999.90;999.90;;;9.00;99.90;;;;;;5088975;28;20036;-83
2023/12/18 08:36:30;;;;;;;1999.90;999.90;;;9.00;99.90;;;;;;5059276;28;20407;-83
2023/12/18 08:38:55;;;;;;;1999.90;999.90;;;9.00;99.90;;;;;;5087103;28;20047;-83
2023/12/18 08:41:21;;;;;;;1999.90;999.90;;;9.00;99.90;;;;;;5077388;28;20044;-83
2023/12/18 08:43:47;;;;;;;1999.90;999.90;;;9.00;99.90;;;;;;5108451;28;20034;-82
2023/12/18 08:46:12;;;;;;;1999.90;999.90;;;9.00;99.90;;;;;;5101206;28;20114;-83
2023/12/18 08:48:38;;;;;;;1999.90;999.90;;;9.10;99.90;;;;;;5077913;28;20047;-83
2023/12/18 08:51:04;;;;;;;1999.90;999.90;;;9.10;99.90;;;;;;5082628;28;20118;-82
2023/12/18 08:53:29;;;;;;;1999.90;999.90;;;9.10;99.90;;;;;;5084149;28;20043;-82
2023/12/18 08:55:55;;;;;;;1999.90;999.90;;;9.10;99.90;;;;;;5087821;28;20039;-82
2023/12/18 08:58:21;;;;;;;1999.90;999.90;;;9.10;99.90;;;;;;5071348;28;20043;-83
2023/12/18 09:00:47;;;;;;;1999.90;999.90;;;9.10;99.90;;;;;;5089547;28;20044;-84
2023/12/18 09:03:13;;;;;;;1999.90;999.90;;;9.10;99.90;;;;;;5068917;28;20040;-82
2023/12/18 09:05:38;;;;;;;1999.90;999.90;;;9.20;99.90;;;;;;5068303;28;20047;-83
2023/12/18 09:08:05;;;;;;;1999.90;999.90;;;9.20;99.90;;;;;;5061927;28;20043;-83
2023/12/18 09:10:32;;;;;;;1999.90;999.90;;;9.20;99.90;;;;;;5055618;28;20043;-83
2023/12/18 09:12:58;;;;;;;1999.90;999.90;;;9.20;99.90;;;;;;5081925;28;20055;-84
2023/12/18 09:15:40;;;;;;;1999.90;999.90;;;9.20;99.90;;;;;;5106727;28;20476;-83
2023/12/18 09:18:06;;;;;;;1999.90;999.90;;;9.20;99.90;;;;;;5068997;27;20036;-82
2023/12/18 09:20:31;;;;;;;1999.90;999.90;;;9.20;99.90;;;;;;5070442;28;20024;-83
2023/12/18 09:22:57;;;;;;;1999.90;999.90;;;9.20;99.90;;;;;;5063465;28;20487;-83
2023/12/18 09:25:23;;;;;;;1999.90;999.90;;;9.20;99.90;;;;;;5088785;28;20044;-83
2023/12/18 09:27:48;;;;;;;1999.90;999.90;;;9.30;99.90;;;;;;5068551;28;20140;-83
2023/12/18 09:30:14;;;;;;;1999.90;999.90;;;9.30;99.90;;;;;;5060574;28;20046;-83
2023/12/18 09:32:40;;;;;;;1999.90;999.90;;;9.30;99.90;;;;;;5085705;28;20519;-83
2023/12/18 09:35:06;;;;;;;1999.90;999.90;;;9.30;99.90;;;;;;5093025;28;20049;-82
2023/12/18 09:37:31;;;;;;;1999.90;999.90;;;9.30;99.90;;;;;;5068913;28;20076;-83
2023/12/18 09:39:57;;;;;;;1999.90;999.90;;;9.30;99.90;;;;;;5066538;28;20036;-83
2023/12/18 09:42:22;;;;;;;1999.90;999.90;;;9.30;99.90;;;;;;5063080;28;20389;-83
2023/12/18 09:44:48;;;;;;;1999.90;999.90;;;9.30;99.90;;;;;;5078483;28;20043;-85
2023/12/18 09:47:14;;;;;;;1999.90;999.90;;;9.30;99.90;;;;;;5072018;28;20039;-85
2023/12/18 09:49:40;;;;;;;1999.90;999.90;;;9.40;99.90;;;;;;5075650;28;20095;-83
2023/12/18 09:52:08;;;;;;;1999.90;999.90;;;9.40;99.90;;;;;;5073294;28;20046;-83
2023/12/18 09:54:34;;;;;;;1999.90;999.90;;;9.40;99.90;;;;;;5088924;28;20088;-83
2023/12/18 09:57:02;;;;;;;1999.90;999.90;;;9.40;99.90;;;;;;5083978;28;20608;-83
2023/12/18 09:59:28;;;;;;;1999.90;999.90;;;9.50;99.90;;;;;;5060631;28;20070;-83
2023/12/18 10:01:54;;;;;;;1999.90;999.90;;;9.40;99.90;;;;;;5063678;28;20060;-83
2023/12/18 10:04:20;;;;;;;1999.90;999.90;;;9.40;99.90;;;;;;5071397;28;20510;-85
2023/12/18 10:06:46;;;;;;;1999.90;999.90;;;9.50;99.90;;;;;;5090123;28;20040;-81
2023/12/18 10:09:15;;;;;;;1999.90;999.90;;;9.40;99.90;;;;;;5085141;28;20518;-83
2023/12/18 10:11:44;;;;;;;1999.90;999.90;;;9.40;99.90;;;;;;5085728;28;20068;-80
2023/12/18 10:14:13;;;;;;;1999.90;999.90;;;9.40;99.90;;;;;;5103269;28;20562;-82
2023/12/18 10:16:39;;;;;;;1999.90;999.90;;;9.40;99.90;;;;;;5063917;28;20040;-83
2023/12/18 10:19:05;;;;;;;1999.90;999.90;;;9.40;99.90;;;;;;5108154;28;20088;-83
2023/12/18 10:21:31;;;;;;;1999.90;999.90;;;9.40;99.90;;;;;;5103118;28;20048;-83
2023/12/18 10:23:57;;;;;;;1999.90;999.90;;;9.50;99.90;;;;;;5102773;28;20035;-83
2023/12/18 10:26:23;;;;;;;1999.90;999.90;;;9.50;99.90;;;;;;5065269;28;20044;-82
2023/12/18 10:28:52;;;;;;;1999.90;999.90;;;9.50;99.90;;;;;;5080352;28;20039;-83
2023/12/18 10:31:21;;;;;;;1999.90;999.90;;;9.50;99.90;;;;;;5085306;28;20086;-83
2023/12/18 10:33:46;;;;;;;1999.90;999.90;;;9.50;99.90;;;;;;5083968;28;20154;-83
2023/12/18 10:36:15;;;;;;;1999.90;999.90;;;9.50;99.90;;;;;;5105503;28;20139;-82
2023/12/18 10:38:41;;;;;;;1999.90;999.90;;;9.50;99.90;;;;;;5082157;28;20039;-83
2023/12/18 10:41:09;;;;;;;1999.90;999.90;;;9.50;99.90;;;;;;5086440;28;20032;-83
2023/12/18 10:43:36;;;;;;;1999.90;999.90;;;9.60;99.90;;;;;;5087599;28;20089;-84
2023/12/18 10:46:05;;;;;;;1999.90;999.90;;;9.60;99.90;;;;;;5095896;28;20043;-83
2023/12/18 10:48:32;;;;;;;1999.90;999.90;;;9.60;99.90;;;;;;5062321;28;20056;-83
2023/12/18 10:51:01;;;;;;;1999.90;999.90;;;9.50;99.90;;;;;;5083123;28;20051;-83
2023/12/18 10:53:27;;;;;;;1999.90;999.90;;;9.60;99.90;;;;;;5079423;28;20054;-83
2023/12/18 10:55:54;;;;;;;1999.90;999.90;;;9.50;99.90;;;;;;5061752;28;20415;-83
2023/12/18 10:58:21;;;;;;;1999.90;999.90;;;9.60;99.90;;;;;;5084789;28;20495;-83
2023/12/18 11:00:52;;;;;;;1999.90;999.90;;;9.60;99.90;;;;;;5080163;28;20047;-83
2023/12/18 11:03:19;;;;;;;1999.90;999.90;;;9.60;99.90;;;;;;5058487;28;20120;-83
2023/12/18 11:05:47;;;;;;;1999.90;999.90;;;9.60;99.90;;;;;;5102303;28;20047;-82
2023/12/18 11:08:13;;;;;;;1999.90;999.90;;;9.60;99.90;;;;;;5086581;28;20054;-82
2023/12/18 11:10:40;;;;;;;1999.90;999.90;;;9.60;99.90;;;;;;5068734;28;20476;-82
2023/12/18 11:13:12;;;;;;;1999.90;999.90;;;9.60;99.90;;;;;;5065275;28;20039;-83
2023/12/18 11:16:22;;;;;;;1999.90;999.90;;;9.60;99.90;;;;;;5079880;28;20172;-83
2023/12/18 11:19:06;;;;;;;1999.90;999.90;;;9.60;99.90;;;;;;4984644;28;20061;-84
2023/12/18 11:21:34;;;;;;;1999.90;999.90;;;9.60;99.90;;;;;;5101891;28;20046;-82
2023/12/18 11:23:59;;;;;;;1999.90;999.90;;;9.60;99.90;;;;;;5064140;28;20043;-84
2023/12/18 11:26:28;;;;;;;1999.90;999.90;;;9.70;99.90;;;;;;5089475;28;20051;-83
2023/12/18 11:29:24;;;;;;;1999.90;999.90;;;9.70;99.90;;;;;;5088338;28;20078;-83
2023/12/18 11:31:53;;;;;;;1999.90;999.90;;;9.70;99.90;;;;;;5086090;28;20102;-83
2023/12/18 11:34:21;;;;;;;1999.90;999.90;;;9.70;99.90;;;;;;5072185;28;20184;-83
2023/12/18 11:36:48;;;;;;;1999.90;999.90;;;9.70;99.90;;;;;;5087225;28;20045;-82
2023/12/18 11:39:13;;;;;;;1999.90;999.90;;;9.70;99.90;;;;;;5065186;28;20074;-84
2023/12/18 11:41:47;;;;;;;1999.90;999.90;;;9.70;99.90;;;;;;5083957;28;20507;-83
2023/12/18 11:44:16;;;;;;;1999.90;999.90;;;9.70;99.90;;;;;;5088234;28;20081;-83
2023/12/18 11:46:44;;;;;;;1999.90;999.90;;;9.70;99.90;;;;;;5067388;28;20035;-83
2023/12/18 11:49:12;;;;;;;1999.90;999.90;;;9.60;99.90;;;;;;5085931;28;20094;-83
2023/12/18 11:51:44;;;;;;;1999.90;999.90;;;9.70;99.90;;;;;;5068915;28;20088;-83
2023/12/18 11:54:14;;;;;;;1999.90;999.90;;;9.70;99.90;;;;;;5064553;28;20454;-83
2023/12/18 11:56:40;;;;;;;1999.90;999.90;;;9.70;99.90;;;;;;5105176;28;20543;-83
2023/12/18 11:59:07;;;;;;;1999.90;999.90;;;9.70;99.90;;;;;;5074509;28;20491;-82
2023/12/18 12:01:39;;;;;;;1999.90;999.90;;;9.70;99.90;;;;;;5076422;28;20043;-85
2023/12/18 12:04:05;;;;;;;1999.90;999.90;;;9.70;99.90;;;;;;5065441;28;20398;-83